sim
Sign-in with your pilot id or email,
or register
Callsign
Passwort

Schedule Details

Flight Number: EWG1787 (5)
Departure: Palma de Mallorca Airport (LEPA) at 19:25
Arrival: Munich Airport (EDDM) at 21:35
Route: Eurowings Passenger Schedule. Enter filed route here before submitting Pirep.

Weather Information
Getting current METAR information for LEPA 230830Z 24009KT 210V270 9999 FEW018 SCT025 27/21 Q1013 NOSIG
Getting current METAR information for EDDM 230820Z 25007KT 220V280 9999 BKN011 BKN035 16/15 Q1010 TEMPO SHRA

Schedule Frequency

Route Map